Time;durP1;ratioP1;P1;durP2;ratioP2;P2;SDS_P1;SDS_P2;PMS_P1;PMS_P2;Temp;Humidity;BMP_temperature;BMP_pressure;BME280_temperature;BME280_humidity;BME280_pressure;Samples;Min_cycle;Max_cycle;Signal;HPM_P1;HPM_P2
2021/06/30 00:02:14;;;;;;;5.80;5.20;;;;;;;21.52;55.74;99423.73;154059;1101;103127;-87
2021/06/30 00:05:19;;;;;;;7.50;5.40;;;;;;;21.47;56.03;99423.64;154104;1095;103134;-85
2021/06/30 00:08:25;;;;;;;6.07;5.47;;;;;;;21.40;55.79;99423.75;154075;1101;103579;-86
2021/06/30 00:11:30;;;;;;;6.63;5.67;;;;;;;21.36;56.09;99430.73;154068;1101;103265;-86
2021/06/30 00:14:35;;;;;;;5.83;5.20;;;;;;;21.36;56.29;99425.31;154098;1096;103195;-83
2021/06/30 00:17:40;;;;;;;5.70;5.10;;;;;;;21.41;56.41;99425.41;154128;1101;103118;-83
2021/06/30 00:20:45;;;;;;;6.07;5.30;;;;;;;21.45;55.84;99421.17;154101;1096;103163;-83
2021/06/30 00:23:50;;;;;;;5.80;5.20;;;;;;;21.48;56.01;99420.69;154103;1101;103153;-85
2021/06/30 00:26:55;;;;;;;6.83;5.70;;;;;;;21.48;56.21;99422.56;154113;1095;103227;-85
2021/06/30 00:30:00;;;;;;;6.18;5.30;;;;;;;21.50;56.24;99415.02;154141;1101;103217;-85
2021/06/30 00:33:06;;;;;;;6.10;5.50;;;;;;;21.42;56.06;99416.22;154064;1101;103201;-84
2021/06/30 00:36:11;;;;;;;6.00;5.40;;;;;;;21.39;56.62;99416.69;154092;1101;103166;-83
2021/06/30 00:39:17;;;;;;;6.77;5.57;;;;;;;21.45;56.16;99415.73;154085;1096;103509;-83
2021/06/30 00:42:22;;;;;;;7.85;5.95;;;;;;;21.48;56.10;99409.83;154108;1096;103293;-82
2021/06/30 00:45:27;;;;;;;6.60;5.97;;;;;;;21.44;55.88;99405.13;154109;1101;103133;-83
2021/06/30 00:48:31;;;;;;;7.20;6.00;;;;;;;21.16;55.75;99390.52;154104;1101;103198;-83
2021/06/30 00:51:37;;;;;;;6.63;5.60;;;;;;;20.92;57.15;99389.78;154127;1095;103128;-83
2021/06/30 00:54:42;;;;;;;7.70;6.20;;;;;;;21.04;56.77;99379.72;154125;1095;103124;-83
2021/06/30 00:57:47;;;;;;;6.23;5.63;;;;;;;21.07;56.75;99378.41;154083;1096;103177;-80
2021/06/30 01:00:53;;;;;;;7.00;5.67;;;;;;;21.13;56.66;99372.84;154201;1101;103195;-82
2021/06/30 01:03:58;;;;;;;6.43;5.83;;;;;;;21.23;56.77;99374.06;154069;1096;103128;-87
2021/06/30 01:07:03;;;;;;;6.30;5.70;;;;;;;21.18;56.90;99382.95;154111;1101;103128;-84
2021/06/30 01:10:10;;;;;;;7.03;6.00;;;;;;;21.27;57.14;99391.53;154098;1094;103157;-84
2021/06/30 01:13:15;;;;;;;6.13;5.53;;;;;;;21.33;56.75;99391.36;154075;1101;103314;-84
2021/06/30 01:16:20;;;;;;;6.50;5.53;;;;;;;21.33;56.67;99390.55;154111;1101;103163;-85
2021/06/30 01:19:26;;;;;;;6.97;6.27;;;;;;;21.22;56.63;99381.39;154106;1101;103240;-83
2021/06/30 01:22:32;;;;;;;6.17;5.53;;;;;;;21.05;56.99;99359.66;154017;1101;103238;-84
2021/06/30 01:25:37;;;;;;;6.73;6.13;;;;;;;21.02;56.57;99359.34;154118;1096;103195;-82
2021/06/30 01:28:42;;;;;;;6.07;5.47;;;;;;;20.93;56.56;99353.48;154082;1095;103263;-83
2021/06/30 01:31:47;;;;;;;6.77;6.10;;;;;;;20.85;56.74;99337.61;154106;1096;103139;-82
2021/06/30 01:34:52;;;;;;;6.30;5.30;;;;;;;20.77;56.73;99334.22;154062;1096;103196;-84
2021/06/30 01:37:57;;;;;;;6.23;5.63;;;;;;;20.77;56.88;99326.08;154070;1101;103192;-85
2021/06/30 01:41:03;;;;;;;7.03;6.33;;;;;;;20.81;57.23;99331.84;154067;1096;103199;-79
2021/06/30 01:44:08;;;;;;;8.23;6.00;;;;;;;20.89;57.23;99344.19;153953;1101;103177;-80
2021/06/30 01:47:13;;;;;;;7.50;5.93;;;;;;;20.85;56.82;99340.32;154138;1101;103132;-87
2021/06/30 01:50:19;;;;;;;7.10;5.80;;;;;;;20.78;56.87;99327.73;154083;1101;103134;-87
2021/06/30 01:53:24;;;;;;;6.43;5.53;;;;;;;20.86;57.12;99317.55;154163;1101;103289;-87
2021/06/30 01:56:30;;;;;;;6.27;5.40;;;;;;;20.93;56.96;99313.61;154259;1101;103233;-87
2021/06/30 01:59:35;;;;;;;6.33;5.73;;;;;;;20.97;56.79;99308.53;154138;1101;103193;-90
2021/06/30 02:02:41;;;;;;;7.73;5.60;;;;;;;20.97;57.09;99303.92;154090;1101;103131;-89
2021/06/30 02:05:47;;;;;;;5.80;5.30;;;;;;;21.03;56.89;99309.44;154095;1101;103118;-89
2021/06/30 02:08:53;;;;;;;6.57;5.73;;;;;;;21.02;56.97;99302.39;154113;1101;103291;-90
2021/06/30 02:11:58;;;;;;;6.23;5.40;;;;;;;21.02;57.24;99305.92;154113;1101;103547;-90
2021/06/30 02:15:06;;;;;;;6.37;5.77;;;;;;;21.03;57.36;99314.87;154079;1101;103259;-81
2021/06/30 02:18:12;;;;;;;6.70;6.03;;;;;;;21.13;57.50;99334.02;154129;1101;103246;-81
2021/06/30 02:21:17;;;;;;;6.20;5.53;;;;;;;21.31;57.51;99384.54;154102;1096;103330;-81
2021/06/30 02:24:22;;;;;;;5.43;4.80;;;;;;;21.51;57.32;99493.47;154076;1095;103237;-81
2021/06/30 02:27:27;;;;;;;5.97;4.93;;;;;;;21.64;57.38;99502.39;154097;1094;103249;-84
2021/06/30 02:30:35;;;;;;;6.70;5.30;;;;;;;21.77;57.33;99480.36;154080;1095;103139;-83
2021/06/30 02:33:40;;;;;;;5.97;5.37;;;;;;;21.89;57.25;99470.23;154101;1101;103106;-83
2021/06/30 02:36:45;;;;;;;6.27;5.53;;;;;;;21.98;57.17;99470.66;154090;1095;103177;-84
2021/06/30 02:39:50;;;;;;;5.77;5.20;;;;;;;22.01;56.99;99458.47;154051;1101;103100;-86
2021/06/30 02:42:58;;;;;;;6.20;5.60;;;;;;;22.02;57.26;99443.80;154107;1101;103343;-82
2021/06/30 02:46:03;;;;;;;6.20;5.60;;;;;;;22.03;57.25;99453.61;154173;1101;103575;-84
2021/06/30 02:49:08;;;;;;;9.63;6.60;;;;;;;22.04;57.27;99436.25;154210;1101;103112;-84
2021/06/30 02:52:14;;;;;;;6.65;5.95;;;;;;;22.03;57.48;99429.97;154096;1101;103118;-81
2021/06/30 02:55:20;;;;;;;8.67;6.87;;;;;;;22.00;57.63;99440.51;154068;1101;103175;-81
2021/06/30 02:58:25;;;;;;;7.67;6.23;;;;;;;21.95;57.72;99417.63;154143;1101;103470;-81
2021/06/30 03:01:30;;;;;;;7.13;6.50;;;;;;;21.91;57.57;99405.63;154124;1096;103316;-82
2021/06/30 03:04:36;;;;;;;5.90;5.30;;;;;;;21.90;57.71;99414.86;154200;1101;103222;-79
2021/06/30 03:07:41;;;;;;;7.30;6.33;;;;;;;21.98;57.94;99424.48;154498;1101;103221;-79
2021/06/30 03:10:46;;;;;;;7.63;6.83;;;;;;;21.94;58.07;99398.86;154189;1101;103107;-80
2021/06/30 03:13:51;;;;;;;7.33;6.30;;;;;;;21.92;58.05;99407.28;154140;1101;103157;-83
2021/06/30 03:16:56;;;;;;;8.43;7.00;;;;;;;21.93;58.09;99405.38;154085;1095;103273;-80
2021/06/30 03:20:01;;;;;;;9.20;7.10;;;;;;;21.81;58.22;99400.05;154088;1101;103218;-78
2021/06/30 03:23:07;;;;;;;7.17;6.47;;;;;;;21.70;58.45;99395.52;153940;1101;103225;-79
2021/06/30 03:26:12;;;;;;;7.20;6.50;;;;;;;21.66;58.73;99391.66;153986;1096;103247;-79
2021/06/30 03:29:17;;;;;;;7.30;6.60;;;;;;;21.70;58.74;99395.52;154084;1101;103243;-80
2021/06/30 03:32:22;;;;;;;8.70;6.53;;;;;;;21.75;58.81;99387.47;154074;1101;103465;-80
2021/06/30 03:35:27;;;;;;;7.27;6.57;;;;;;;21.75;58.99;99384.75;154101;1096;103156;-81
2021/06/30 03:38:33;;;;;;;9.47;6.90;;;;;;;21.67;59.30;99394.13;154206;1096;103254;-81
2021/06/30 03:41:38;;;;;;;6.40;5.80;;;;;;;21.76;59.03;99397.23;154281;1096;103131;-81
2021/06/30 03:44:43;;;;;;;6.63;5.93;;;;;;;21.90;58.94;99406.71;154207;1101;103227;-79
2021/06/30 03:47:48;;;;;;;6.75;6.15;;;;;;;22.03;59.02;99401.98;154115;1096;103267;-79
2021/06/30 03:50:53;;;;;;;7.05;6.05;;;;;;;22.16;59.02;99423.38;154056;1101;103209;-80
2021/06/30 03:53:58;;;;;;;7.10;6.40;;;;;;;22.26;59.24;99414.58;154011;1101;103113;-80
2021/06/30 03:57:03;;;;;;;8.87;6.50;;;;;;;22.20;59.25;99410.93;154056;1101;103107;-79
2021/06/30 04:00:13;;;;;;;8.23;7.10;;;;;;;22.18;59.69;99383.19;153964;1101;103126;-80
2021/06/30 04:03:19;;;;;;;8.47;7.00;;;;;;;21.93;60.38;99343.72;154089;1101;103142;-81
2021/06/30 04:06:25;;;;;;;8.47;5.90;;;;;;;21.68;60.49;99308.88;154029;1101;103547;-77
2021/06/30 04:09:30;;;;;;;8.77;5.23;;;;;;;21.49;60.66;99264.89;153942;1096;103122;-79
2021/06/30 04:12:35;;;;;;;6.27;5.63;;;;;;;21.41;61.13;99262.58;153899;1096;104020;-81
2021/06/30 04:15:42;;;;;;;9.33;5.80;;;;;;;21.33;61.50;99246.73;154077;1101;103509;-80
2021/06/30 04:18:47;;;;;;;7.70;5.60;;;;;;;21.21;61.84;99254.13;154032;1101;103262;-80
2021/06/30 04:21:52;;;;;;;9.27;5.27;;;;;;;21.11;61.79;99261.05;153993;1096;103145;-78
2021/06/30 04:24:57;;;;;;;7.90;4.90;;;;;;;21.04;61.97;99260.38;153953;1101;103135;-79
2021/06/30 04:28:02;;;;;;;6.57;4.90;;;;;;;20.99;62.02;99268.42;153946;1095;103096;-81
2021/06/30 04:31:07;;;;;;;8.55;5.00;;;;;;;20.99;62.36;99252.97;153997;1101;103186;-77
2021/06/30 04:34:12;;;;;;;7.80;5.20;;;;;;;20.98;62.50;99258.66;153892;1101;103267;-77
2021/06/30 04:37:17;;;;;;;8.10;5.20;;;;;;;20.95;62.60;99256.43;154042;1101;103277;-77
2021/06/30 04:40:22;;;;;;;6.00;4.87;;;;;;;20.92;62.88;99255.04;153959;1101;103213;-76
2021/06/30 04:43:27;;;;;;;7.17;5.53;;;;;;;20.90;63.00;99265.31;153897;1096;103125;-78
2021/06/30 04:46:32;;;;;;;9.67;5.20;;;;;;;20.90;63.06;99267.17;154131;1096;103241;-79
2021/06/30 04:49:37;;;;;;;7.77;5.00;;;;;;;20.92;63.13;99281.31;154002;1101;103198;-76
2021/06/30 04:52:43;;;;;;;5.20;4.67;;;;;;;20.95;63.73;99284.36;153993;1101;103133;-80
2021/06/30 04:55:48;;;;;;;5.37;4.87;;;;;;;21.00;63.59;99289.07;153960;1101;103195;-76
2021/06/30 04:58:53;;;;;;;5.40;4.90;;;;;;;21.05;63.70;99299.17;153920;1101;103312;-78
2021/06/30 05:01:58;;;;;;;6.60;4.90;;;;;;;21.08;63.78;99299.50;154014;1101;103107;-79
2021/06/30 05:05:04;;;;;;;5.60;4.50;;;;;;;21.13;63.73;99296.89;154088;1094;103292;-78
2021/06/30 05:08:09;;;;;;;6.23;4.27;;;;;;;21.24;63.88;99299.76;154005;1096;103195;-78
2021/06/30 05:11:14;;;;;;;11.07;5.07;;;;;;;21.43;63.59;99311.19;154025;1096;103119;-74
2021/06/30 05:14:19;;;;;;;6.27;4.83;;;;;;;21.80;63.60;99319.63;153938;1101;103751;-74
2021/06/30 05:17:24;;;;;;;5.20;4.65;;;;;;;22.12;63.25;99321.70;153976;1101;103204;-78
2021/06/30 05:20:30;;;;;;;5.80;4.80;;;;;;;22.32;63.01;99315.73;153959;1101;103267;-79
2021/06/30 05:23:35;;;;;;;5.60;4.60;;;;;;;22.53;62.78;99325.76;154042;1095;103115;-76
2021/06/30 05:26:40;;;;;;;6.67;4.40;;;;;;;22.68;62.61;99311.52;153958;1095;103104;-79
2021/06/30 05:29:45;;;;;;;5.93;4.30;;;;;;;22.80;62.27;99315.98;153982;1096;103147;-78
2021/06/30 05:32:50;;;;;;;5.43;4.57;;;;;;;22.97;62.45;99313.98;153979;1101;103128;-84
2021/06/30 05:35:55;;;;;;;4.30;3.90;;;;;;;23.09;62.28;99309.21;154099;1101;103318;-80
2021/06/30 05:39:00;;;;;;;4.90;4.30;;;;;;;23.24;62.47;99307.72;154015;1101;103493;-80
2021/06/30 05:42:06;;;;;;;6.37;3.93;;;;;;;23.27;62.07;99301.77;153944;1096;103122;-80
2021/06/30 05:45:16;;;;;;;4.97;3.70;;;;;;;23.43;61.98;99305.42;153936;1096;103147;-80
2021/06/30 05:48:21;;;;;;;7.47;4.10;;;;;;;23.60;61.74;99313.44;154048;1101;103136;-78
2021/06/30 05:51:26;;;;;;;6.83;4.20;;;;;;;23.74;61.46;99306.44;153937;1093;103487;-79
2021/06/30 05:54:31;;;;;;;9.43;4.73;;;;;;;23.95;61.12;99312.05;154230;1101;103139;-79
2021/06/30 05:57:38;;;;;;;5.97;4.63;;;;;;;24.12;61.51;99314.59;153998;1093;103160;-78
2021/06/30 06:00:43;;;;;;;13.07;6.63;;;;;;;24.21;61.40;99310.23;153981;1101;103106;-79
2021/06/30 06:03:48;;;;;;;7.00;5.50;;;;;;;24.37;61.22;99308.42;154033;1101;103564;-79
2021/06/30 06:06:53;;;;;;;14.90;6.50;;;;;;;24.43;61.00;99308.16;153976;1093;103291;-78
2021/06/30 06:09:59;;;;;;;11.00;6.20;;;;;;;24.53;61.25;99312.84;154125;1101;103224;-79
2021/06/30 06:13:05;;;;;;;11.13;5.70;;;;;;;24.62;60.70;99308.52;154079;1093;103142;-79
2021/06/30 06:16:11;;;;;;;10.33;5.17;;;;;;;24.76;60.52;99310.73;153938;1101;103119;-79
2021/06/30 06:19:16;;;;;;;7.50;5.20;;;;;;;24.88;60.71;99319.47;153978;1093;103147;-76
2021/06/30 06:22:21;;;;;;;8.60;5.27;;;;;;;24.93;60.28;99324.14;154004;1093;103196;-79
2021/06/30 06:25:26;;;;;;;8.40;4.97;;;;;;;25.00;59.66;99321.94;153998;1101;103187;-79
2021/06/30 06:28:33;;;;;;;6.53;4.87;;;;;;;25.05;60.14;99330.95;154083;1101;103123;-76
2021/06/30 06:31:39;;;;;;;6.93;5.13;;;;;;;25.08;59.19;99337.80;154007;1101;103224;-80
2021/06/30 06:34:46;;;;;;;5.40;4.80;;;;;;;25.11;59.53;99341.89;154141;1101;103166;-78
2021/06/30 06:37:51;;;;;;;7.27;4.80;;;;;;;25.26;59.65;99347.39;154046;1101;103247;-80
2021/06/30 06:40:56;;;;;;;6.50;5.07;;;;;;;25.27;59.58;99338.13;154123;1101;103128;-76
2021/06/30 06:44:01;;;;;;;4.90;4.40;;;;;;;25.29;59.55;99352.31;154120;1101;103141;-78
2021/06/30 06:47:06;;;;;;;5.37;4.80;;;;;;;25.29;59.45;99349.59;153992;1101;103195;-78
2021/06/30 06:50:12;;;;;;;8.60;4.83;;;;;;;25.25;59.23;99345.73;154149;1101;103145;-80
2021/06/30 06:53:17;;;;;;;5.33;4.20;;;;;;;25.30;59.04;99353.13;154106;1096;103188;-78
2021/06/30 06:56:26;;;;;;;6.20;4.63;;;;;;;25.31;59.17;99355.59;154007;1094;103470;-77
2021/06/30 06:59:31;;;;;;;5.40;4.87;;;;;;;25.30;59.23;99344.94;154047;1093;103190;-77
2021/06/30 07:02:36;;;;;;;6.00;4.43;;;;;;;25.19;58.83;99338.61;154064;1101;103197;-77
2021/06/30 07:05:41;;;;;;;5.10;4.50;;;;;;;25.16;59.18;99341.91;154068;1093;103291;-77
2021/06/30 07:08:46;;;;;;;4.90;4.40;;;;;;;25.21;58.91;99342.73;154139;1101;103363;-79
2021/06/30 07:11:51;;;;;;;5.30;4.40;;;;;;;25.27;58.98;99349.85;154149;1101;103150;-82
2021/06/30 07:14:58;;;;;;;6.97;4.90;;;;;;;25.30;59.14;99334.02;154074;1093;103193;-78
2021/06/30 07:18:03;;;;;;;5.97;4.10;;;;;;;25.34;58.61;99341.38;153975;1101;103119;-78
2021/06/30 07:21:10;;;;;;;4.70;4.30;;;;;;;25.38;59.18;99339.73;154128;1093;103131;-79
2021/06/30 07:24:15;;;;;;;4.53;4.13;;;;;;;25.46;58.43;99344.67;154199;1101;103190;-79
2021/06/30 07:27:20;;;;;;;5.20;4.20;;;;;;;25.54;58.43;99343.30;154190;1101;103107;-78
2021/06/30 07:30:25;;;;;;;6.07;4.50;;;;;;;25.69;58.34;99336.98;154031;1093;103200;-81
2021/06/30 07:33:30;;;;;;;4.80;4.40;;;;;;;25.78;58.23;99332.59;153974;1094;103159;-78
2021/06/30 07:36:35;;;;;;;4.80;4.30;;;;;;;25.81;58.28;99348.45;154055;1101;103077;-79
2021/06/30 07:39:41;;;;;;;4.70;4.30;;;;;;;25.75;58.12;99338.63;154090;1101;103567;-74
2021/06/30 07:42:46;;;;;;;4.53;4.07;;;;;;;25.74;58.11;99342.44;154066;1101;103224;-77
2021/06/30 07:45:51;;;;;;;6.53;5.93;;;;;;;25.80;58.21;99335.87;154031;1096;103139;-80
2021/06/30 07:48:56;;;;;;;7.17;5.30;;;;;;;25.91;57.98;99333.13;154460;1101;103118;-79
2021/06/30 07:52:01;;;;;;;6.70;5.13;;;;;;;26.17;57.33;99333.89;154053;1101;103184;-79
2021/06/30 07:55:07;;;;;;;11.90;5.85;;;;;;;26.44;56.96;99344.45;154056;1101;103227;-74
2021/06/30 07:58:12;;;;;;;5.17;4.77;;;;;;;26.64;57.50;99351.78;154280;1101;103271;-80
2021/06/30 08:01:17;;;;;;;7.00;4.90;;;;;;;26.73;57.98;99354.73;154115;1093;103563;-80
2021/06/30 08:04:22;;;;;;;6.70;4.85;;;;;;;26.86;57.76;99358.77;154083;1093;103291;-80
2021/06/30 08:07:27;;;;;;;6.45;5.00;;;;;;;26.97;57.64;99358.42;154095;1101;103133;-79
2021/06/30 08:10:33;;;;;;;5.63;5.07;;;;;;;27.10;57.71;99356.14;154084;1094;103284;-80
2021/06/30 08:13:38;;;;;;;6.43;5.20;;;;;;;27.28;57.65;99351.95;153995;1101;103194;-80
2021/06/30 08:16:43;;;;;;;6.53;5.20;;;;;;;27.29;57.56;99357.15;153982;1093;103144;-79
2021/06/30 08:19:48;;;;;;;9.70;5.80;;;;;;;27.27;57.24;99356.59;153943;1094;103142;-80
2021/06/30 08:22:53;;;;;;;6.93;5.50;;;;;;;27.31;57.53;99352.20;153954;1101;103314;-80
2021/06/30 08:25:58;;;;;;;5.90;5.30;;;;;;;27.37;57.46;99351.05;153966;1101;103267;-79
2021/06/30 08:29:03;;;;;;;6.13;4.90;;;;;;;27.49;57.47;99353.41;154016;1101;103219;-79
2021/06/30 08:32:09;;;;;;;6.73;5.27;;;;;;;27.60;57.26;99351.41;154014;1093;103125;-80
2021/06/30 08:35:15;;;;;;;5.67;5.03;;;;;;;27.55;56.82;99354.19;153966;1101;103119;-80
2021/06/30 08:38:20;;;;;;;4.97;4.57;;;;;;;27.53;56.98;99348.18;154020;1093;103771;-80
2021/06/30 08:41:25;;;;;;;5.50;5.00;;;;;;;27.58;57.34;99356.34;153989;1093;103228;-79
2021/06/30 08:44:30;;;;;;;6.93;4.70;;;;;;;27.51;56.67;99355.88;153993;1094;103257;-79
2021/06/30 08:47:37;;;;;;;7.30;4.90;;;;;;;27.37;56.72;99364.75;153954;1093;103196;-80
2021/06/30 08:50:44;;;;;;;5.83;4.43;;;;;;;27.31;56.19;99363.16;153988;1101;103097;-79
2021/06/30 08:53:50;;;;;;;4.80;4.40;;;;;;;27.29;56.46;99373.59;153994;1101;103224;-79
2021/06/30 08:56:55;;;;;;;4.97;4.40;;;;;;;27.23;56.24;99370.03;154054;1101;103368;-79
2021/06/30 09:00:01;;;;;;;4.93;4.47;;;;;;;27.11;56.17;99361.34;154011;1101;103197;-79
2021/06/30 09:03:09;;;;;;;4.40;4.00;;;;;;;27.13;56.56;99361.06;153975;1093;103195;-79
2021/06/30 09:06:14;;;;;;;4.00;3.70;;;;;;;27.10;57.05;99364.36;153915;1101;103135;-79
2021/06/30 09:09:19;;;;;;;6.27;3.70;;;;;;;27.10;56.26;99372.57;154044;1094;103253;-79
2021/06/30 09:12:39;;;;;;;3.60;3.30;;;;;;;27.03;55.42;99372.91;153989;1093;103246;-79
2021/06/30 09:15:45;;;;;;;4.97;3.50;;;;;;;27.01;56.10;99375.11;154045;1101;103141;-79
2021/06/30 09:18:51;;;;;;;3.73;3.40;;;;;;;27.00;55.62;99373.45;154385;1096;103125;-80
2021/06/30 09:22:01;;;;;;;3.40;3.10;;;;;;;26.95;55.28;99382.53;154028;1101;103141;-80
2021/06/30 09:25:07;;;;;;;3.30;3.00;;;;;;;27.00;55.36;99374.30;154085;1096;103196;-76
2021/06/30 09:28:18;;;;;;;3.70;2.80;;;;;;;27.03;54.87;99379.19;154035;1094;103145;-79
2021/06/30 09:31:28;;;;;;;3.10;2.90;;;;;;;27.07;54.93;99379.44;154051;1101;103466;-77
2021/06/30 09:34:34;;;;;;;3.23;2.83;;;;;;;27.13;54.40;99372.02;154053;1096;103128;-77
2021/06/30 09:37:39;;;;;;;3.23;2.90;;;;;;;27.14;53.63;99373.66;154003;1101;103198;-80
2021/06/30 09:40:46;;;;;;;3.60;3.00;;;;;;;27.09;54.34;99370.95;153992;1101;103157;-80
2021/06/30 09:43:51;;;;;;;3.13;2.73;;;;;;;27.08;54.68;99374.78;154008;1096;103222;-77
2021/06/30 09:46:57;;;;;;;3.35;2.85;;;;;;;27.07;54.29;99378.63;154017;1101;103128;-74
2021/06/30 09:50:02;;;;;;;5.33;3.20;;;;;;;27.09;54.12;99373.69;155306;1101;103221;-79
2021/06/30 09:53:07;;;;;;;3.23;2.70;;;;;;;27.13;54.22;99372.02;154455;1096;103131;-75
2021/06/30 09:56:14;;;;;;;3.80;3.40;;;;;;;27.18;54.39;99370.06;154074;1096;103294;-77
2021/06/30 09:59:24;;;;;;;3.57;3.07;;;;;;;27.23;54.46;99372.77;154538;1101;103221;-80
2021/06/30 10:02:40;;;;;;;3.43;2.83;;;;;;;27.32;53.63;99373.00;154379;1101;103135;-78
2021/06/30 10:05:46;;;;;;;3.77;2.97;;;;;;;27.44;53.18;99371.81;154151;1101;103166;-76
2021/06/30 10:08:52;;;;;;;3.30;3.00;;;;;;;27.53;53.12;99379.13;154063;1101;103142;-77
2021/06/30 10:12:03;;;;;;;3.23;2.93;;;;;;;27.62;53.75;99371.13;154630;1094;103098;-80
2021/06/30 10:15:10;;;;;;;3.50;3.20;;;;;;;27.65;52.76;99384.23;154211;1101;103220;-77
2021/06/30 10:18:16;;;;;;;4.53;2.93;;;;;;;27.56;52.70;99377.73;154204;1101;103129;-78
2021/06/30 10:21:23;;;;;;;3.75;3.10;;;;;;;27.26;52.18;99373.33;154312;1101;103144;-77
2021/06/30 10:24:28;;;;;;;3.50;3.20;;;;;;;27.22;52.86;99371.13;154110;1101;103168;-77
2021/06/30 10:27:33;;;;;;;3.23;2.93;;;;;;;27.35;52.72;99383.39;154229;1093;103359;-79
2021/06/30 10:30:39;;;;;;;3.80;2.83;;;;;;;27.42;51.83;99375.64;154069;1101;103221;-79
2021/06/30 10:33:56;;;;;;;3.57;2.90;;;;;;;27.48;51.97;99370.94;154470;1101;103189;-78
2021/06/30 10:37:01;;;;;;;3.77;2.77;;;;;;;27.56;52.41;99364.03;154199;1101;103171;-78
2021/06/30 10:40:10;;;;;;;3.33;2.83;;;;;;;27.69;51.91;99368.03;154071;1101;103145;-80
2021/06/30 10:43:15;;;;;;;3.00;2.70;;;;;;;27.76;51.71;99371.27;154343;1093;103135;-79
2021/06/30 10:46:29;;;;;;;4.17;3.17;;;;;;;27.74;52.08;99377.03;154300;1095;103173;-81
2021/06/30 10:49:36;;;;;;;5.70;2.77;;;;;;;27.74;51.76;99379.77;154696;1096;103166;-78
2021/06/30 10:52:41;;;;;;;3.40;2.70;;;;;;;27.81;51.22;99377.52;154118;1094;103231;-80
2021/06/30 10:55:51;;;;;;;6.13;2.80;;;;;;;27.99;51.77;99372.44;154441;1093;103163;-82
2021/06/30 10:59:07;;;;;;;4.60;3.37;;;;;;;28.03;51.49;99368.00;154233;1094;103103;-82
2021/06/30 11:02:16;;;;;;;3.77;3.03;;;;;;;28.14;52.15;99374.20;154975;1096;103258;-83
2021/06/30 11:05:37;;;;;;;3.08;2.78;;;;;;;28.40;51.34;99378.26;154283;1096;103132;-82
2021/06/30 11:08:43;;;;;;;;;;;;;;;28.58;50.54;99367.64;155180;1101;103142;-79
2021/06/30 11:11:59;;;;;;;5.90;2.63;;;;;;;28.66;50.80;99366.17;154770;1093;103150;-77
2021/06/30 11:15:04;;;;;;;4.87;3.07;;;;;;;28.78;50.60;99366.57;153984;1101;103163;-76
2021/06/30 11:18:44;;;;;;;4.37;3.10;;;;;;;28.83;50.41;99369.26;154099;1101;103558;-78
2021/06/30 11:21:50;;;;;;;3.35;2.80;;;;;;;29.04;50.36;99363.45;154050;1101;103176;-79
2021/06/30 11:24:58;;;;;;;3.17;2.83;;;;;;;29.14;50.16;99368.84;154029;1101;103220;-78
2021/06/30 11:28:03;;;;;;;3.60;3.10;;;;;;;29.20;49.65;99375.05;154089;1093;103132;-78
2021/06/30 11:31:40;;;;;;;3.43;2.87;;;;;;;29.26;49.72;99360.14;154091;1093;103102;-76
2021/06/30 11:34:45;;;;;;;3.27;2.97;;;;;;;29.20;49.65;99362.14;154162;1101;103222;-80
2021/06/30 11:37:59;;;;;;;4.95;3.15;;;;;;;29.15;49.67;99364.96;154049;1096;103125;-77
2021/06/30 11:41:10;;;;;;;4.90;3.23;;;;;;;29.20;49.42;99356.65;154033;1101;103177;-77
2021/06/30 11:44:18;;;;;;;5.40;3.27;;;;;;;29.18;48.78;99353.39;154073;1101;103629;-75
2021/06/30 11:47:23;;;;;;;3.40;3.10;;;;;;;28.94;49.21;99358.92;154118;1093;103288;-77
2021/06/30 11:50:30;;;;;;;5.40;3.75;;;;;;;29.01;49.38;99356.63;154018;1093;103257;-79
2021/06/30 11:53:43;;;;;;;4.30;3.53;;;;;;;29.02;49.62;99354.69;154054;1101;103125;-80
2021/06/30 11:56:48;;;;;;;4.47;3.10;;;;;;;29.01;49.05;99356.63;154083;1093;103125;-80
2021/06/30 12:00:08;;;;;;;3.40;3.10;;;;;;;29.02;49.29;99352.75;153995;1096;103219;-82
2021/06/30 12:03:20;;;;;;;3.80;3.10;;;;;;;29.18;49.44;99353.39;154177;1093;103259;-79
2021/06/30 12:06:27;;;;;;;3.37;3.07;;;;;;;29.33;48.81;99350.39;153966;1096;103307;-79
2021/06/30 12:09:33;;;;;;;4.00;3.20;;;;;;;29.32;48.09;99342.45;154145;1101;103100;-75
2021/06/30 12:12:38;;;;;;;3.33;3.03;;;;;;;29.23;48.38;99345.05;154157;1093;103216;-84
2021/06/30 12:15:47;;;;;;;3.87;3.30;;;;;;;29.19;48.17;99340.46;154273;1101;103107;-79
2021/06/30 12:18:52;;;;;;;3.67;3.23;;;;;;;29.11;48.02;99341.92;154250;1101;103168;-80
2021/06/30 12:21:58;;;;;;;3.50;2.90;;;;;;;29.10;47.99;99343.02;154124;1101;103171;-83
2021/06/30 12:25:05;;;;;;;3.33;3.03;;;;;;;29.06;47.56;99342.83;154110;1093;103104;-85
2021/06/30 12:28:11;;;;;;;3.20;2.90;;;;;;;28.93;47.26;99349.07;154146;1101;103170;-84
2021/06/30 12:31:16;;;;;;;3.67;3.37;;;;;;;28.88;47.04;99343.64;154149;1101;103497;-84
2021/06/30 12:34:21;;;;;;;2.93;2.73;;;;;;;28.80;46.93;99334.14;154116;1101;103256;-86
2021/06/30 12:37:28;;;;;;;4.50;3.40;;;;;;;28.63;47.16;99340.14;154131;1093;103239;-83
2021/06/30 12:40:34;;;;;;;3.80;3.40;;;;;;;28.63;47.54;99337.39;154187;1101;103115;-81
2021/06/30 12:43:40;;;;;;;4.10;3.70;;;;;;;28.73;47.50;99336.44;154140;1093;103114;-85
2021/06/30 12:46:45;;;;;;;3.67;3.37;;;;;;;28.83;47.11;99340.96;154209;1101;103228;-83
2021/06/30 12:50:05;;;;;;;3.60;3.30;;;;;;;28.91;47.00;99335.63;154193;1101;103190;-81
2021/06/30 12:53:15;;;;;;;3.50;3.20;;;;;;;28.96;46.96;99330.05;154076;1101;103393;-83
2021/06/30 12:56:33;;;;;;;5.03;3.10;;;;;;;28.96;47.13;99334.73;154114;1101;103100;-82
2021/06/30 12:59:39;;;;;;;4.10;2.67;;;;;;;28.90;47.13;99325.75;154178;1101;103477;-81
2021/06/30 13:02:45;;;;;;;2.40;2.20;;;;;;;28.74;46.89;99324.36;154160;1101;103144;-80
2021/06/30 13:05:52;;;;;;;2.63;2.43;;;;;;;28.66;47.18;99330.48;154112;1101;103237;-79
2021/06/30 13:09:05;;;;;;;3.05;2.75;;;;;;;28.64;46.75;99329.97;154127;1101;103283;-81
2021/06/30 13:12:11;;;;;;;2.65;2.45;;;;;;;28.55;46.17;99325.15;154200;1101;103128;-81
2021/06/30 13:15:27;;;;;;;2.87;2.57;;;;;;;28.52;47.21;99328.50;154247;1096;103136;-82
2021/06/30 13:18:44;;;;;;;5.10;2.33;;;;;;;28.50;47.28;99322.43;154218;1097;103195;-83
2021/06/30 13:21:56;;;;;;;2.60;2.40;;;;;;;28.49;47.28;99320.01;154233;1095;103266;-81
2021/06/30 13:25:12;;;;;;;3.00;2.37;;;;;;;28.46;46.03;99324.14;154221;1096;103121;-81
2021/06/30 13:28:47;;;;;;;3.15;2.35;;;;;;;28.27;45.92;99335.07;154225;1101;103118;-82
2021/06/30 13:35:24;;;;;;;5.07;2.50;;;;;;;28.17;46.32;99336.02;153937;1101;103139;-79
2021/06/30 13:38:33;;;;;;;2.50;2.17;;;;;;;28.14;46.61;99341.30;153965;1101;103253;-77
2021/06/30 13:41:39;;;;;;;2.40;2.20;;;;;;;28.15;46.25;99338.23;154100;1101;103304;-81
2021/06/30 13:44:44;;;;;;;2.97;2.10;;;;;;;28.18;46.05;99337.66;154273;1101;103100;-81
2021/06/30 13:47:49;;;;;;;2.33;2.10;;;;;;;28.15;46.21;99348.39;154079;1096;103107;-82
2021/06/30 13:50:56;;;;;;;3.70;1.77;;;;;;;28.23;46.11;99344.19;154075;1095;103099;-82
2021/06/30 13:54:02;;;;;;;2.00;1.77;;;;;;;28.30;46.00;99347.41;154432;1101;103125;-81
2021/06/30 13:57:07;;;;;;;3.53;1.50;;;;;;;28.27;46.09;99347.98;154077;1101;103262;-76
2021/06/30 14:00:13;;;;;;;1.50;1.40;;;;;;;28.19;45.25;99343.95;154012;1101;103199;-86
2021/06/30 14:03:18;;;;;;;1.75;1.60;;;;;;;28.17;45.90;99336.02;154205;1097;103196;-81
2021/06/30 14:06:23;;;;;;;1.43;1.30;;;;;;;28.17;45.80;99344.24;153967;1101;103198;-78
2021/06/30 14:09:28;;;;;;;3.27;1.50;;;;;;;28.23;45.83;99341.45;154079;1101;103119;-80
2021/06/30 14:12:33;;;;;;;2.23;1.20;;;;;;;28.29;45.49;99337.53;154018;1096;103270;-81
2021/06/30 14:15:38;;;;;;;1.60;1.50;;;;;;;28.30;45.63;99333.69;154108;1101;103128;-77
2021/06/30 14:18:43;;;;;;;2.20;1.43;;;;;;;28.16;45.60;99342.63;154097;1095;103115;-77
2021/06/30 14:21:48;;;;;;;1.73;1.30;;;;;;;28.03;44.86;99337.84;153909;1096;103200;-78